Time;durP1;ratioP1;P1;durP2;ratioP2;P2;SDS_P1;SDS_P2;PMS_P1;PMS_P2;Temp;Humidity;BMP_temperature;BMP_pressure;BME280_temperature;BME280_humidity;BME280_pressure;Samples;Min_cycle;Max_cycle;Signal;HPM_P1;HPM_P2
2022/09/28 00:00:10;;;;;;;0.30;0.30;;;;;;;6.92;100.00;96619.16;15286594;19;20043;-78
2022/09/28 00:05:34;;;;;;;0.40;0.40;;;;;;;6.92;100.00;96627.19;15290310;19;20011;-81
2022/09/28 00:11:06;;;;;;;0.40;0.40;;;;;;;6.89;100.00;96617.69;15301321;19;20022;-81
2022/09/28 00:16:32;;;;;;;1.00;0.50;;;;;;;6.85;100.00;96612.91;15289004;19;20041;-81
2022/09/28 00:21:57;;;;;;;0.30;0.30;;;;;;;6.81;100.00;96611.59;15292469;19;20041;-81
2022/09/28 00:27:24;;;;;;;1.48;0.40;;;;;;;6.76;100.00;96599.56;15297604;19;20015;-82
2022/09/28 00:32:49;;;;;;;0.50;0.50;;;;;;;6.75;100.00;96599.75;15292153;19;20014;-81
2022/09/28 00:38:15;;;;;;;0.73;0.40;;;;;;;6.66;100.00;96585.63;15291255;19;20131;-80
2022/09/28 00:43:44;;;;;;;0.40;0.40;;;;;;;6.68;100.00;96583.59;15312671;19;20014;-81
2022/09/28 00:49:13;;;;;;;0.95;0.50;;;;;;;6.63;100.00;96572.63;15303930;19;20022;-81
2022/09/28 00:54:38;;;;;;;0.50;0.50;;;;;;;6.62;100.00;96562.94;15300058;19;20092;-81
2022/09/28 01:00:07;;;;;;;0.43;0.30;;;;;;;6.54;100.00;96554.97;15302814;19;20019;-81
2022/09/28 01:05:33;;;;;;;0.90;0.40;;;;;;;6.50;100.00;96537.66;15302243;19;20022;-81
2022/09/28 01:10:58;;;;;;;1.00;0.50;;;;;;;6.47;100.00;96533.47;15309347;19;20014;-81
2022/09/28 01:16:34;;;;;;;0.70;0.60;;;;;;;6.38;100.00;96532.72;15301959;19;20015;-81
2022/09/28 01:22:32;;;;;;;0.60;0.50;;;;;;;6.32;100.00;96525.41;15307857;19;20018;-82
2022/09/28 01:28:14;;;;;;;0.63;0.50;;;;;;;6.25;100.00;96513.81;15305127;19;20010;-82
2022/09/28 01:33:41;;;;;;;0.40;0.40;;;;;;;6.11;100.00;96502.88;15309282;19;20006;-83
2022/09/28 01:39:11;;;;;;;0.90;0.47;;;;;;;6.03;100.00;96489.59;15307126;19;20018;-81
2022/09/28 01:44:41;;;;;;;1.17;0.40;;;;;;;5.98;100.00;96492.78;15307680;19;20344;-81
2022/09/28 01:50:12;;;;;;;0.40;0.40;;;;;;;5.91;100.00;96485.66;15310147;19;20014;-82
2022/09/28 01:55:40;;;;;;;0.75;0.50;;;;;;;5.83;100.00;96486.56;15299642;19;20198;-78
2022/09/28 02:01:12;;;;;;;0.75;0.43;;;;;;;5.81;100.00;96489.41;15295702;19;20054;-79
2022/09/28 02:06:44;;;;;;;0.50;0.50;;;;;;;5.82;100.00;96477.69;15294613;19;20010;-78
2022/09/28 02:12:17;;;;;;;2.13;0.60;;;;;;;5.82;100.00;96484.88;15296081;19;20014;-78
2022/09/28 02:17:45;;;;;;;1.40;0.60;;;;;;;5.78;100.00;96483.56;15304372;19;20021;-80
2022/09/28 02:23:13;;;;;;;1.10;0.57;;;;;;;5.77;100.00;96479.25;15311385;19;20023;-80
2022/09/28 02:28:37;;;;;;;1.75;0.60;;;;;;;5.76;100.00;96467.72;15352619;19;20007;-80
2022/09/28 02:34:06;;;;;;;1.65;0.60;;;;;;;5.77;100.00;96468.56;15288485;19;20094;-79
2022/09/28 02:39:32;;;;;;;1.35;0.60;;;;;;;5.75;100.00;96460.72;15289732;19;20129;-80
2022/09/28 02:45:22;;;;;;;1.50;0.65;;;;;;;5.74;100.00;96461.72;15295824;19;20014;-79
2022/09/28 02:50:58;;;;;;;1.38;0.70;;;;;;;5.84;100.00;96464.16;15293710;19;20007;-80
2022/09/28 02:56:43;;;;;;;1.17;0.70;;;;;;;5.91;100.00;96453.59;15296645;19;20018;-80
2022/09/28 03:02:16;;;;;;;0.82;0.70;;;;;;;5.99;100.00;96443.69;15296254;19;20090;-80
2022/09/28 03:07:58;;;;;;;0.90;0.80;;;;;;;6.08;100.00;96439.09;15303178;19;20014;-80
2022/09/28 03:13:22;;;;;;;;;;;;;;;6.11;100.00;96425.34;15300111;19;20021;-79
2022/09/28 03:18:48;;;;;;;2.25;1.00;;;;;;;6.17;100.00;96411.25;15292629;19;20300;-81
2022/09/28 03:24:16;;;;;;;3.15;1.10;;;;;;;6.20;100.00;96409.22;15275157;19;20025;-79
2022/09/28 03:29:41;;;;;;;0.95;0.85;;;;;;;6.25;100.00;96409.53;14779646;19;9999979;-77
2022/09/28 03:35:07;;;;;;;2.22;0.90;;;;;;;6.27;100.00;96397.63;15297316;19;20089;-77
2022/09/28 03:40:34;;;;;;;1.88;0.90;;;;;;;6.30;100.00;96399.09;15291682;19;20082;-78
2022/09/28 03:46:00;;;;;;;1.77;0.90;;;;;;;6.31;100.00;96382.03;15291956;19;20380;-78
2022/09/28 03:51:30;;;;;;;1.67;1.05;;;;;;;6.31;100.00;96382.88;15357342;19;20039;-77
2022/09/28 03:56:58;;;;;;;2.08;1.10;;;;;;;6.36;100.00;96376.97;15291502;19;20530;-79
2022/09/28 04:02:22;;;;;;;1.10;1.00;;;;;;;6.38;100.00;96374.94;15284207;19;20352;-81
2022/09/28 04:07:46;;;;;;;1.85;1.02;;;;;;;6.41;100.00;96369.19;15291653;19;20011;-78
2022/09/28 04:13:07;;;;;;;1.80;0.90;;;;;;;6.43;100.00;96367.19;15293616;19;20025;-81
2022/09/28 04:18:26;;;;;;;2.17;1.00;;;;;;;6.46;100.00;96355.31;15303872;19;20018;-82
2022/09/28 04:24:10;;;;;;;2.60;1.00;;;;;;;6.52;100.00;96356.41;15303554;19;20021;-83
2022/09/28 04:29:38;;;;;;;1.95;1.00;;;;;;;6.53;100.00;96344.66;15305106;19;20014;-81
2022/09/28 04:35:02;;;;;;;1.92;1.20;;;;;;;6.55;100.00;96331.94;15302120;19;20019;-80
2022/09/28 04:40:27;;;;;;;3.85;1.25;;;;;;;6.58;100.00;96336.91;15305640;19;20090;-81
2022/09/28 04:45:54;;;;;;;3.25;1.48;;;;;;;6.61;100.00;96334.69;15303021;19;20006;-82
2022/09/28 04:51:26;;;;;;;3.13;1.40;;;;;;;6.64;100.00;96341.53;15302996;19;20014;-81
2022/09/28 04:56:51;;;;;;;3.00;1.42;;;;;;;6.66;100.00;96330.63;15311980;19;20078;-81
2022/09/28 05:02:19;;;;;;;4.38;1.67;;;;;;;6.67;100.00;96325.06;15298291;19;20381;-79
2022/09/28 05:08:08;;;;;;;2.55;1.60;;;;;;;6.70;100.00;96322.03;15309956;19;20569;-80
2022/09/28 05:13:34;;;;;;;2.75;1.63;;;;;;;6.71;100.00;96309.47;15309738;19;20602;-80
2022/09/28 05:19:05;;;;;;;3.67;1.75;;;;;;;6.70;100.00;96311.31;15307116;19;20082;-80
2022/09/28 05:24:29;;;;;;;4.38;2.17;;;;;;;6.71;100.00;96296.94;15303519;19;20024;-81
2022/09/28 05:29:54;;;;;;;4.03;2.10;;;;;;;6.70;100.00;96302.50;15304415;19;20018;-80
2022/09/28 05:35:39;;;;;;;3.17;2.20;;;;;;;6.74;100.00;96296.56;15312383;19;20070;-82
2022/09/28 05:41:10;;;;;;;4.40;2.28;;;;;;;6.73;100.00;96294.91;15308054;19;20578;-81
2022/09/28 05:46:35;;;;;;;3.55;2.20;;;;;;;6.75;100.00;96295.56;15318868;19;20018;-80
2022/09/28 05:52:03;;;;;;;3.90;2.00;;;;;;;6.75;100.00;96300.91;15295325;19;20515;-81
2022/09/28 05:57:28;;;;;;;2.45;1.80;;;;;;;6.79;100.00;96299.47;15300731;19;20452;-81
2022/09/28 06:03:03;;;;;;;4.00;2.08;;;;;;;6.83;100.00;96297.25;15294633;19;20015;-81
2022/09/28 06:08:32;;;;;;;4.10;2.20;;;;;;;6.85;100.00;96279.16;15304894;19;20372;-82
2022/09/28 06:14:24;;;;;;;3.60;2.10;;;;;;;6.89;100.00;96282.28;15303248;19;20041;-81
2022/09/28 06:19:51;;;;;;;4.90;2.75;;;;;;;6.92;100.00;96282.75;15297988;19;20355;-81
2022/09/28 06:25:34;;;;;;;5.65;2.58;;;;;;;6.94;100.00;96277.19;15297189;19;20002;-83
2022/09/28 06:31:01;;;;;;;4.30;2.75;;;;;;;6.96;100.00;96269.81;15300324;19;20018;-80
2022/09/28 06:36:30;;;;;;;4.07;2.60;;;;;;;6.97;100.00;96270.63;15292977;19;20025;-79
2022/09/28 06:41:57;;;;;;;3.95;2.53;;;;;;;6.99;100.00;96273.94;15301951;19;20029;-79
2022/09/28 06:47:42;;;;;;;4.75;2.70;;;;;;;6.98;100.00;96286.50;15304319;19;20014;-80
2022/09/28 06:53:15;;;;;;;4.15;2.58;;;;;;;6.99;100.00;96290.00;15310803;19;20023;-82
2022/09/28 06:58:54;;;;;;;5.13;2.92;;;;;;;6.97;100.00;96295.56;15306857;19;20010;-82
2022/09/28 07:04:27;;;;;;;5.03;2.78;;;;;;;6.97;100.00;96287.53;15309766;19;20018;-83
2022/09/28 07:09:55;;;;;;;3.90;2.50;;;;;;;6.96;100.00;96285.88;15313987;19;20037;-82
2022/09/28 07:15:45;;;;;;;7.55;2.72;;;;;;;6.98;100.00;96283.00;15307575;19;20047;-83
2022/09/28 07:21:11;;;;;;;3.72;2.50;;;;;;;7.02;100.00;96273.56;15315099;19;20352;-81
2022/09/28 07:26:48;;;;;;;8.82;3.40;;;;;;;7.07;100.00;96277.31;15288842;19;20517;-77
2022/09/28 07:32:30;;;;;;;6.13;2.22;;;;;;;7.14;100.00;96284.56;15300709;19;20022;-80
2022/09/28 07:38:06;;;;;;;4.03;2.25;;;;;;;7.17;100.00;96286.88;15298065;19;20015;-80
2022/09/28 07:43:30;;;;;;;2.88;2.00;;;;;;;7.21;100.00;96288.16;15301606;19;20027;-79
2022/09/28 07:48:58;;;;;;;4.57;1.75;;;;;;;7.20;100.00;96281.13;15306086;19;20497;-79
2022/09/28 07:54:44;;;;;;;1.58;1.42;;;;;;;7.25;100.00;96284.91;15322105;19;20006;-79
2022/09/28 08:00:36;;;;;;;2.63;1.57;;;;;;;7.30;100.00;96283.47;15318253;19;20477;-78
2022/09/28 08:06:13;;;;;;;1.58;1.20;;;;;;;7.33;100.00;96291.13;15316725;19;20015;-78
2022/09/28 08:11:37;;;;;;;3.00;1.20;;;;;;;7.39;100.00;96293.84;15313709;19;20007;-79
2022/09/28 08:17:21;;;;;;;1.50;1.10;;;;;;;7.45;100.00;96310.19;15309727;19;20015;-78
2022/09/28 08:22:51;;;;;;;1.90;1.15;;;;;;;7.55;100.00;96311.50;15337145;19;20014;-82
2022/09/28 08:28:17;;;;;;;2.72;1.42;;;;;;;7.65;100.00;96315.69;15357953;19;20687;-82
2022/09/28 08:33:58;;;;;;;3.58;2.03;;;;;;;7.77;100.00;96319.47;15300223;19;20019;-81
2022/09/28 08:39:48;;;;;;;3.58;2.58;;;;;;;7.93;100.00;96326.41;15309692;19;20413;-83
2022/09/28 08:45:35;;;;;;;2.30;1.20;;;;;;;7.89;100.00;96314.41;15306457;19;20033;-82
2022/09/28 08:51:30;;;;;;;1.30;1.05;;;;;;;7.81;100.00;96312.72;15301862;19;20022;-87
2022/09/28 09:02:47;;;;;;;0.95;0.77;;;;;;;7.77;100.00;96321.34;15357227;19;20068;-83
2022/09/28 09:08:35;;;;;;;0.63;0.30;;;;;;;7.82;100.00;96321.59;15304604;19;20010;-83
2022/09/28 09:14:23;;;;;;;0.57;0.30;;;;;;;7.94;100.00;96322.69;15306589;19;20015;-81
2022/09/28 09:19:59;;;;;;;1.45;0.52;;;;;;;8.08;100.00;96333.50;15303389;19;20041;-83
2022/09/28 09:25:53;;;;;;;0.20;0.20;;;;;;;8.17;100.00;96324.28;15305959;19;20706;-83
2022/09/28 09:31:27;;;;;;;;;;;;;;;8.06;100.00;96322.97;15306086;19;20007;-81
2022/09/28 09:37:16;;;;;;;0.70;0.40;;;;;;;8.09;100.00;96330.63;15309407;19;19930;-84
2022/09/28 09:43:41;;;;;;;1.17;0.32;;;;;;;8.12;100.00;96340.13;15302856;19;20014;-83
2022/09/28 09:49:29;;;;;;;0.60;0.47;;;;;;;8.09;100.00;96349.41;15304695;19;20010;-82
2022/09/28 09:55:02;;;;;;;0.60;0.57;;;;;;;8.10;100.00;96356.44;15303244;19;20031;-82
2022/09/28 10:00:37;;;;;;;0.60;0.60;;;;;;;8.30;100.00;96369.94;15307724;19;20015;-83
2022/09/28 10:06:26;;;;;;;1.08;0.60;;;;;;;8.46;100.00;96373.34;15299457;19;20404;-81
2022/09/28 10:11:54;;;;;;;0.90;0.28;;;;;;;8.62;100.00;96353.41;15311081;19;20026;-82
2022/09/28 10:17:26;;;;;;;0.55;0.30;;;;;;;8.83;100.00;96371.25;15306874;19;20024;-81
2022/09/28 10:23:18;;;;;;;0.40;0.20;;;;;;;8.72;100.00;96353.06;15301185;19;20011;-81
2022/09/28 10:28:53;;;;;;;0.20;0.20;;;;;;;8.77;100.00;96366.69;15298574;19;20061;-80
2022/09/28 10:34:21;;;;;;;0.43;0.30;;;;;;;8.65;100.00;96371.81;15303785;19;20074;-80
2022/09/28 10:40:00;;;;;;;1.15;0.30;;;;;;;8.76;100.00;96389.22;15309257;19;20025;-80
2022/09/28 10:45:30;;;;;;;0.30;0.20;;;;;;;8.73;100.00;96384.25;15304929;19;20104;-80
2022/09/28 10:51:11;;;;;;;0.90;0.20;;;;;;;8.60;100.00;96398.41;15298217;19;20010;-79
2022/09/28 10:56:42;;;;;;;1.02;0.20;;;;;;;8.70;100.00;96403.41;15307178;19;20014;-79
2022/09/28 11:02:34;;;;;;;0.32;0.20;;;;;;;8.82;100.00;96384.91;15298160;19;20467;-82
2022/09/28 11:08:13;;;;;;;0.35;0.35;;;;;;;8.93;100.00;96387.81;15302640;19;20018;-80
2022/09/28 11:13:46;;;;;;;1.33;0.50;;;;;;;8.81;100.00;96397.47;15312648;19;20018;-81
2022/09/28 11:19:37;;;;;;;0.82;0.50;;;;;;;8.64;100.00;96400.50;15312901;19;20045;-81
2022/09/28 11:25:23;;;;;;;0.82;0.60;;;;;;;8.81;100.00;96402.03;15304237;19;20015;-83
2022/09/28 11:30:54;;;;;;;0.70;0.50;;;;;;;9.22;100.00;96398.44;15304871;19;20014;-82
2022/09/28 11:37:04;;;;;;;0.85;0.65;;;;;;;9.34;100.00;96394.13;15313716;19;20363;-81
2022/09/28 11:42:43;;;;;;;0.45;0.45;;;;;;;9.21;100.00;96400.31;15314802;19;20035;-81
2022/09/28 11:48:12;;;;;;;1.13;0.68;;;;;;;8.90;100.00;96404.31;15316565;19;20011;-81
2022/09/28 11:53:55;;;;;;;0.90;0.60;;;;;;;8.83;100.00;96405.31;15315048;19;20007;-81
2022/09/28 11:59:26;;;;;;;0.70;0.50;;;;;;;9.00;100.00;96420.06;15343598;19;20010;-80
2022/09/28 12:05:03;;;;;;;1.05;0.60;;;;;;;9.06;100.00;96413.88;15337046;19;20039;-81
2022/09/28 12:10:37;;;;;;;2.58;0.60;;;;;;;9.48;100.00;96400.34;15350899;19;20010;-82
2022/09/28 12:16:17;;;;;;;0.88;0.60;;;;;;;9.62;100.00;96413.81;15355302;19;20003;-82
2022/09/28 12:22:06;;;;;;;0.95;0.60;;;;;;;9.81;100.00;96409.50;15342400;19;20019;-80
2022/09/28 12:27:38;;;;;;;0.88;0.60;;;;;;;9.95;100.00;96400.41;15341108;19;20010;-80
2022/09/28 12:33:10;;;;;;;1.58;0.70;;;;;;;10.01;100.00;96404.13;15337690;19;20011;-81
2022/09/28 12:38:47;;;;;;;1.00;0.50;;;;;;;10.38;100.00;96406.38;15345480;19;20026;-81
2022/09/28 12:44:50;;;;;;;0.90;0.50;;;;;;;10.38;100.00;96388.38;15345303;19;20010;-81
2022/09/28 12:50:27;;;;;;;1.73;0.57;;;;;;;10.38;100.00;96409.91;15347142;19;20035;-81
2022/09/28 12:56:05;;;;;;;2.35;0.50;;;;;;;10.23;100.00;96434.31;15348283;19;20010;-81
2022/09/28 13:01:49;;;;;;;0.80;0.50;;;;;;;10.00;100.00;96443.63;15362313;19;20043;-82
2022/09/28 13:07:30;;;;;;;1.63;0.75;;;;;;;9.97;100.00;96445.91;15335976;19;20011;-82
2022/09/28 13:13:08;;;;;;;2.93;0.60;;;;;;;10.03;100.00;96439.72;15342486;19;20025;-82
2022/09/28 13:18:39;;;;;;;1.38;0.50;;;;;;;9.91;100.00;96436.00;15333921;19;20015;-81
2022/09/28 13:24:07;;;;;;;0.70;0.60;;;;;;;10.35;100.00;96436.41;15338784;19;20025;-82
2022/09/28 13:29:50;;;;;;;1.13;0.52;;;;;;;10.51;100.00;96445.94;15336969;19;20053;-82
2022/09/28 13:35:20;;;;;;;0.43;0.43;;;;;;;10.27;100.00;96445.50;15354741;19;20002;-81
2022/09/28 13:41:15;;;;;;;1.10;0.60;;;;;;;10.09;100.00;96452.34;15350773;19;20014;-81
2022/09/28 13:46:50;;;;;;;0.52;0.50;;;;;;;9.86;100.00;96467.00;15353933;19;19999;-81
2022/09/28 13:52:20;;;;;;;0.95;0.70;;;;;;;9.61;100.00;96477.53;15357814;19;20351;-82
2022/09/28 13:57:50;;;;;;;0.98;0.70;;;;;;;9.38;100.00;96481.38;15349821;19;20033;-81
2022/09/28 14:03:34;;;;;;;0.85;0.50;;;;;;;9.40;100.00;96483.88;15359795;19;20013;-81
2022/09/28 14:09:24;;;;;;;0.73;0.50;;;;;;;9.40;100.00;96478.50;15351910;19;20010;-81
2022/09/28 14:14:59;;;;;;;2.58;0.40;;;;;;;9.45;100.00;96485.94;15333725;19;20011;-82
2022/09/28 14:20:29;;;;;;;1.33;0.35;;;;;;;9.91;100.00;96479.84;15336943;19;20010;-81
2022/09/28 14:26:07;;;;;;;0.75;0.35;;;;;;;10.31;100.00;96485.25;15335027;19;20025;-83
2022/09/28 14:31:32;;;;;;;0.15;0.15;;;;;;;10.81;100.00;96485.84;15335060;19;20022;-82
2022/09/28 14:42:37;;;;;;;0.30;0.30;;;;;;;11.45;100.00;96486.03;15311984;19;20748;-84
2022/09/28 14:48:23;;;;;;;0.45;0.38;;;;;;;11.59;100.00;96481.41;15308787;19;20215;-84
2022/09/28 14:53:52;;;;;;;0.60;0.40;;;;;;;11.57;100.00;96484.31;15315754;19;20050;-84
2022/09/28 14:59:23;;;;;;;0.47;0.40;;;;;;;11.63;100.00;96488.84;15302193;19;20074;-85
2022/09/28 15:04:51;;;;;;;0.40;0.40;;;;;;;11.81;100.00;96487.31;15297800;19;20022;-84
2022/09/28 15:10:30;;;;;;;0.40;0.40;;;;;;;11.54;100.00;96500.94;15303718;19;20010;-82
2022/09/28 15:16:00;;;;;;;0.30;0.30;;;;;;;10.89;100.00;96518.78;15283930;19;20028;-81
2022/09/28 15:21:26;;;;;;;0.30;0.30;;;;;;;10.60;100.00;96520.06;15295898;19;20377;-80
2022/09/28 15:26:55;;;;;;;1.67;0.40;;;;;;;10.60;100.00;96518.19;15302923;19;20046;-82
2022/09/28 15:32:32;;;;;;;0.30;0.30;;;;;;;10.56;100.00;96508.88;15304548;19;20049;-82
2022/09/28 15:37:58;;;;;;;1.20;0.50;;;;;;;10.72;100.00;96513.00;15354902;19;20014;-82
2022/09/28 15:43:36;;;;;;;0.40;0.40;;;;;;;10.57;100.00;96524.00;15292617;19;20039;-82
2022/09/28 15:49:03;;;;;;;0.45;0.45;;;;;;;10.60;100.00;96531.63;15292667;19;20022;-81
2022/09/28 15:54:33;;;;;;;2.15;0.50;;;;;;;10.35;100.00;96535.97;15296383;19;20014;-84
2022/09/28 16:00:02;;;;;;;0.40;0.40;;;;;;;10.17;100.00;96548.97;15304140;19;20437;-84
2022/09/28 16:05:40;;;;;;;0.50;0.50;;;;;;;10.03;100.00;96542.75;15273706;19;20026;-80
2022/09/28 16:11:14;;;;;;;0.55;0.30;;;;;;;9.92;100.00;96546.03;15304484;19;20022;-83
2022/09/28 16:16:45;;;;;;;0.52;0.52;;;;;;;9.86;100.00;96557.63;15308850;19;20958;-80
2022/09/28 16:22:22;;;;;;;1.13;0.70;;;;;;;9.65;100.00;96561.28;15311380;19;20018;-80
2022/09/28 16:27:50;;;;;;;0.50;0.50;;;;;;;9.50;100.00;96564.94;15309146;19;20018;-81
2022/09/28 16:33:39;;;;;;;0.55;0.50;;;;;;;9.52;100.00;96579.00;15310272;19;20403;-82
2022/09/28 16:39:04;;;;;;;0.68;0.60;;;;;;;9.45;100.00;96578.16;15311640;19;20440;-81
2022/09/28 16:44:33;;;;;;;0.60;0.60;;;;;;;9.37;100.00;96586.38;15307354;19;20022;-81
2022/09/28 16:50:01;;;;;;;0.60;0.60;;;;;;;9.27;100.00;96593.97;15311929;19;20032;-81
2022/09/28 16:55:26;;;;;;;0.63;0.60;;;;;;;9.02;100.00;96594.44;15291654;19;20046;-82
2022/09/28 17:00:57;;;;;;;0.63;0.57;;;;;;;8.89;100.00;96605.94;15297806;19;20007;-82
2022/09/28 17:06:26;;;;;;;0.57;0.57;;;;;;;8.66;100.00;96607.00;15304589;19;20024;-82
2022/09/28 17:11:54;;;;;;;0.60;0.60;;;;;;;8.48;100.00;96607.47;15300858;19;20029;-79
2022/09/28 17:17:20;;;;;;;0.50;0.50;;;;;;;8.35;100.00;96615.34;15300209;19;20480;-81
2022/09/28 17:22:47;;;;;;;0.70;0.70;;;;;;;8.24;100.00;96619.38;15313900;19;20366;-82
2022/09/28 17:28:20;;;;;;;0.60;0.60;;;;;;;8.09;100.00;96630.16;15342659;19;20014;-83
2022/09/28 17:33:44;;;;;;;0.70;0.70;;;;;;;8.00;100.00;96627.59;15339876;19;20022;-82
2022/09/28 17:39:16;;;;;;;0.60;0.60;;;;;;;7.88;100.00;96637.16;15297059;19;20018;-82
2022/09/28 17:44:40;;;;;;;0.93;0.70;;;;;;;7.79;100.00;96633.72;15297685;19;20015;-82
2022/09/28 17:50:23;;;;;;;0.80;0.80;;;;;;;7.76;100.00;96638.66;15308228;19;20455;-82
2022/09/28 17:55:50;;;;;;;1.35;1.25;;;;;;;7.70;100.00;96651.75;15299536;19;20096;-81
2022/09/28 18:01:15;;;;;;;1.48;1.38;;;;;;;7.62;100.00;96667.13;15294502;19;20435;-82
2022/09/28 18:06:50;;;;;;;1.85;1.60;;;;;;;7.54;100.00;96678.78;15297702;19;20086;-82
2022/09/28 18:12:18;;;;;;;1.40;1.30;;;;;;;7.45;100.00;96674.53;15299655;19;20540;-82
2022/09/28 18:17:42;;;;;;;1.10;1.10;;;;;;;7.38;100.00;96680.63;15291895;19;20022;-84
2022/09/28 18:23:07;;;;;;;1.50;1.40;;;;;;;7.29;100.00;96689.75;15293065;19;20031;-83
2022/09/28 18:28:34;;;;;;;1.73;1.60;;;;;;;7.20;100.00;96694.34;15295336;19;20475;-84
2022/09/28 18:34:01;;;;;;;1.63;1.50;;;;;;;7.12;100.00;96696.28;15291359;19;20014;-81
2022/09/28 18:39:26;;;;;;;1.48;1.38;;;;;;;7.04;100.00;96708.75;15295223;19;20055;-82
2022/09/28 18:44:53;;;;;;;1.60;1.45;;;;;;;6.94;100.00;96711.66;15297568;19;20014;-82
2022/09/28 18:50:19;;;;;;;1.75;1.60;;;;;;;6.87;100.00;96721.44;15298126;19;20025;-81
2022/09/28 18:55:46;;;;;;;2.47;1.50;;;;;;;6.81;100.00;96732.88;15344619;19;20011;-80
2022/09/28 19:01:17;;;;;;;1.40;1.30;;;;;;;6.77;100.00;96740.41;15307747;19;20127;-82
2022/09/28 19:06:54;;;;;;;1.70;1.60;;;;;;;6.72;100.00;96734.78;15290701;19;20018;-81
2022/09/28 19:12:19;;;;;;;1.58;1.48;;;;;;;6.66;100.00;96740.81;15290833;19;20015;-80
2022/09/28 19:17:47;;;;;;;1.45;1.35;;;;;;;6.61;100.00;96738.69;15294656;19;20028;-83
2022/09/28 19:23:12;;;;;;;1.70;1.60;;;;;;;6.57;100.00;96736.53;15292617;19;20089;-82
2022/09/28 19:28:40;;;;;;;1.50;1.40;;;;;;;6.56;100.00;96740.22;15292453;19;20007;-84
2022/09/28 19:34:08;;;;;;;1.60;1.50;;;;;;;6.56;100.00;96746.44;15289238;19;20083;-84
2022/09/28 19:39:33;;;;;;;1.52;1.42;;;;;;;6.57;100.00;96750.78;15294147;19;20019;-83
2022/09/28 19:44:58;;;;;;;1.63;1.52;;;;;;;6.56;100.00;96748.25;15305603;19;20010;-83
2022/09/28 19:50:25;;;;;;;1.92;1.60;;;;;;;6.59;100.00;96755.94;15309261;19;20501;-83
2022/09/28 19:55:52;;;;;;;1.67;1.58;;;;;;;6.62;100.00;96760.94;15301445;19;20010;-84
2022/09/28 20:01:16;;;;;;;1.92;1.75;;;;;;;6.62;100.00;96772.47;15308856;19;20003;-85
2022/09/28 20:06:44;;;;;;;2.33;1.60;;;;;;;6.64;100.00;96774.97;15298678;19;20026;-84
2022/09/28 20:12:10;;;;;;;1.67;1.58;;;;;;;6.62;100.00;96777.00;15308304;19;20755;-83
2022/09/28 20:17:37;;;;;;;1.80;1.70;;;;;;;6.60;100.00;96781.69;15308534;19;20018;-84
2022/09/28 20:23:07;;;;;;;1.80;1.70;;;;;;;6.55;100.00;96787.56;15310230;19;20017;-85
2022/09/28 20:28:32;;;;;;;1.80;1.70;;;;;;;6.48;100.00;96798.13;15308533;19;20022;-84
2022/09/28 20:33:58;;;;;;;2.67;1.70;;;;;;;6.44;100.00;96799.47;15298215;19;20022;-83
2022/09/28 20:39:25;;;;;;;2.65;2.00;;;;;;;6.41;100.00;96813.19;15302485;19;20002;-85
2022/09/28 20:44:51;;;;;;;2.28;2.10;;;;;;;6.34;100.00;96817.59;15298584;19;20033;-84
2022/09/28 20:50:16;;;;;;;3.75;2.10;;;;;;;6.30;100.00;96821.59;15300672;19;20015;-84
2022/09/28 20:55:43;;;;;;;2.00;1.90;;;;;;;6.23;100.00;96823.31;15301560;19;20021;-83
2022/09/28 21:01:16;;;;;;;2.30;2.15;;;;;;;6.21;100.00;96825.31;15303509;19;20363;-83
2022/09/28 21:06:42;;;;;;;2.40;2.20;;;;;;;6.14;100.00;96836.72;15295832;19;20039;-84
2022/09/28 21:12:10;;;;;;;2.60;2.40;;;;;;;6.11;100.00;96838.91;15304631;19;20069;-83
2022/09/28 21:17:34;;;;;;;2.35;2.15;;;;;;;6.06;100.00;96839.41;15300929;19;19999;-82
2022/09/28 21:23:01;;;;;;;2.55;2.35;;;;;;;5.99;100.00;96843.75;15304186;19;20117;-84
2022/09/28 21:28:28;;;;;;;2.50;2.30;;;;;;;5.97;100.00;96848.44;15301788;19;20015;-86
2022/09/28 21:33:53;;;;;;;3.50;2.40;;;;;;;5.91;100.00;96854.47;15307333;19;20010;-84
2022/09/28 21:39:18;;;;;;;3.67;2.60;;;;;;;5.89;100.00;96856.47;15311528;19;20022;-82
2022/09/28 21:44:46;;;;;;;3.70;2.30;;;;;;;5.94;100.00;96860.31;15306110;19;20007;-84
2022/09/28 21:50:23;;;;;;;4.22;2.50;;;;;;;5.98;100.00;96863.47;15313547;19;20357;-85
2022/09/28 21:55:51;;;;;;;2.90;2.60;;;;;;;6.02;100.00;96875.53;15301419;19;20010;-84
2022/09/28 22:01:20;;;;;;;2.35;2.15;;;;;;;6.05;100.00;96864.50;15317865;19;20015;-84
2022/09/28 22:06:45;;;;;;;2.83;2.30;;;;;;;6.08;100.00;96872.16;15356044;19;20010;-85
2022/09/28 22:12:10;;;;;;;2.33;2.13;;;;;;;6.09;100.00;96876.50;15359187;19;20106;-87
2022/09/28 22:17:39;;;;;;;2.40;2.20;;;;;;;6.11;100.00;96871.81;15326642;19;20031;-84
2022/09/28 22:23:04;;;;;;;2.90;2.20;;;;;;;6.12;100.00;96872.63;15293460;19;20024;-83
2022/09/28 22:28:29;;;;;;;2.65;2.45;;;;;;;6.14;100.00;96874.16;15299754;19;20010;-84
2022/09/28 22:33:56;;;;;;;2.42;2.22;;;;;;;6.16;100.00;96866.81;15291927;19;20011;-84
2022/09/28 22:39:21;;;;;;;3.05;2.22;;;;;;;6.19;100.00;96873.63;15289659;19;20011;-83
2022/09/28 22:44:45;;;;;;;3.05;2.30;;;;;;;6.23;100.00;96866.09;15291308;19;20018;-82
2022/09/28 22:50:13;;;;;;;2.10;2.00;;;;;;;6.25;100.00;96867.59;15299255;19;20014;-85
2022/09/28 22:55:37;;;;;;;2.00;1.90;;;;;;;6.28;100.00;96866.44;15287865;19;20310;-86
2022/09/28 23:01:08;;;;;;;1.90;1.80;;;;;;;6.33;100.00;96869.41;15301265;19;20010;-85
2022/09/28 23:06:36;;;;;;;1.97;1.80;;;;;;;6.35;100.00;96861.22;15290835;19;20351;-85
2022/09/28 23:12:01;;;;;;;1.83;1.70;;;;;;;6.39;100.00;96867.88;15293185;19;20013;-85
2022/09/28 23:17:25;;;;;;;1.92;1.83;;;;;;;6.41;100.00;96873.91;15291676;19;20021;-83
2022/09/28 23:22:52;;;;;;;1.80;1.70;;;;;;;6.42;100.00;96868.38;15294870;19;20031;-83
2022/09/28 23:28:18;;;;;;;1.90;1.80;;;;;;;6.42;100.00;96868.38;15289396;19;20014;-84
2022/09/28 23:33:43;;;;;;;1.88;1.73;;;;;;;6.44;100.00;96861.00;15294799;19;20018;-83
2022/09/28 23:39:10;;;;;;;1.60;1.50;;;;;;;6.41;100.00;96860.53;15288771;19;20014;-84
2022/09/28 23:44:35;;;;;;;2.17;2.00;;;;;;;6.40;100.00;96859.69;15287841;19;20010;-84
2022/09/28 23:49:59;;;;;;;1.80;1.70;;;;;;;6.40;100.00;96859.69;15307811;19;20015;-84
2022/09/28 23:55:27;;;;;;;1.60;1.50;;;;;;;6.37;100.00;96849.34;15334521;19;20047;-84
